Perote, Alabama
Current Conditions -  °F | °C
As of 3:53 PM on Monday 24 Nov 2014 (Local Time) from KTOI Reporting Station
Clear Clear  
Wind Chill: 76°   Ceiling: Unl
Heat Index: 76°   Visibility: 10mi
Dew Point: 54°   Wind: 5mph
Humidity: 46%   Direction: 260°W
Pressure: 29.85"   Gusts: NA
Location:  31.95°N, 85.71°W
Report Text: KTOI 242153Z AUTO 26004KT 10SM CLR 24/12 A2985 RMK AO2 SLP102 T02440122
Loading
Personal Weather Stations






























Interactive Weather Map New forecast layout! Learn more

10-Day Weather Forecast

Advertisements
Track Severe Weather on mobile